Weather at Kristiansund Airport, Kvernberget

Public forecast

Using degrees Celsius for public forecast. Weather courtesy of forecast.io.

Current aviation weather report (METAR) for Kristiansund Airport, Kvernberget

2024/05/30 03:20 (retrieved 16 minutes ago)

ENKB 300320Z AUTO 02004KT 350V050 9999 SCT088/// 12/09 Q1009 RMK WIND 745FT 03006KT

Closest aviation forecast (TAF) to Kristiansund Airport, Kvernberget

Forecast is more than 12 hours old.

Closest forecast is Salluit Airport, 2,139.7 nm (3,962.7 km) NW.

2024/05/29 14:00 (retrieved 14 hours ago)

TAF CYZG 291340Z 2914/2921 23020KT P6SM FEW012 SCT070 BKN100 TEMPO 2914/2918 BKN012 RMK NXT FCST BY 301400Z